sensor_id;sensor_type;location;lat;lon;timestamp;temperature;humidity
53880;DHT22;39791;53.184;5.486;2023-04-01T00:00:16;13.50;99.90
53880;DHT22;39791;53.184;5.486;2023-04-01T00:02:42;16.90;99.90
53880;DHT22;39791;53.184;5.486;2023-04-01T00:05:09;16.20;99.90
53880;DHT22;39791;53.184;5.486;2023-04-01T00:07:36;12.40;99.90
53880;DHT22;39791;53.184;5.486;2023-04-01T00:10:02;16.90;99.90
53880;DHT22;39791;53.184;5.486;2023-04-01T00:12:28;15.50;99.90
53880;DHT22;39791;53.184;5.486;2023-04-01T00:14:54;16.40;99.90
53880;DHT22;39791;53.184;5.486;2023-04-01T00:17:19;16.60;99.90
53880;DHT22;39791;53.184;5.486;2023-04-01T00:19:45;15.90;99.90
53880;DHT22;39791;53.184;5.486;2023-04-01T00:22:11;15.90;99.90
53880;DHT22;39791;53.184;5.486;2023-04-01T00:24:37;15.00;99.90
53880;DHT22;39791;53.184;5.486;2023-04-01T00:27:03;17.00;99.90
53880;DHT22;39791;53.184;5.486;2023-04-01T00:29:29;12.10;99.90
53880;DHT22;39791;53.184;5.486;2023-04-01T00:31:57;16.40;99.90
53880;DHT22;39791;53.184;5.486;2023-04-01T00:34:22;17.20;99.90
53880;DHT22;39791;53.184;5.486;2023-04-01T00:36:52;12.40;99.90
53880;DHT22;39791;53.184;5.486;2023-04-01T00:39:18;13.30;99.90
53880;DHT22;39791;53.184;5.486;2023-04-01T00:41:44;16.80;99.90
53880;DHT22;39791;53.184;5.486;2023-04-01T00:44:25;15.90;99.90
53880;DHT22;39791;53.184;5.486;2023-04-01T00:46:51;14.50;99.90
53880;DHT22;39791;53.184;5.486;2023-04-01T00:49:19;12.40;99.90
53880;DHT22;39791;53.184;5.486;2023-04-01T00:51:49;16.70;99.90
53880;DHT22;39791;53.184;5.486;2023-04-01T00:54:16;17.10;99.90
53880;DHT22;39791;53.184;5.486;2023-04-01T00:56:57;16.60;99.90
53880;DHT22;39791;53.184;5.486;2023-04-01T00:59:27;12.20;99.90
53880;DHT22;39791;53.184;5.486;2023-04-01T01:01:55;15.70;99.90
53880;DHT22;39791;53.184;5.486;2023-04-01T01:04:31;12.30;99.90
53880;DHT22;39791;53.184;5.486;2023-04-01T01:10:20;12.40;99.90
53880;DHT22;39791;53.184;5.486;2023-04-01T01:13:12;16.50;99.90
53880;DHT22;39791;53.184;5.486;2023-04-01T01:16:00;14.70;99.90
53880;DHT22;39791;53.184;5.486;2023-04-01T01:18:34;13.60;99.90
53880;DHT22;39791;53.184;5.486;2023-04-01T01:24:50;14.30;99.90
53880;DHT22;39791;53.184;5.486;2023-04-01T01:35:22;16.50;99.90
53880;DHT22;39791;53.184;5.486;2023-04-01T01:38:33;16.30;99.90
53880;DHT22;39791;53.184;5.486;2023-04-01T01:40:52;14.20;99.90
53880;DHT22;39791;53.184;5.486;2023-04-01T01:43:23;13.60;99.90
53880;DHT22;39791;53.184;5.486;2023-04-01T01:45:54;14.10;99.90
53880;DHT22;39791;53.184;5.486;2023-04-01T01:48:22;12.60;99.90
53880;DHT22;39791;53.184;5.486;2023-04-01T01:50:49;12.70;99.90
53880;DHT22;39791;53.184;5.486;2023-04-01T01:53:15;13.20;99.90
53880;DHT22;39791;53.184;5.486;2023-04-01T01:55:43;16.90;99.90
53880;DHT22;39791;53.184;5.486;2023-04-01T02:00:48;16.80;99.90
53880;DHT22;39791;53.184;5.486;2023-04-01T02:03:16;12.30;99.90
53880;DHT22;39791;53.184;5.486;2023-04-01T02:05:42;14.50;99.90
53880;DHT22;39791;53.184;5.486;2023-04-01T02:08:16;14.20;99.90
53880;DHT22;39791;53.184;5.486;2023-04-01T02:10:50;15.70;99.90
53880;DHT22;39791;53.184;5.486;2023-04-01T02:13:27;13.60;99.90
53880;DHT22;39791;53.184;5.486;2023-04-01T02:15:58;12.20;99.90
53880;DHT22;39791;53.184;5.486;2023-04-01T02:18:25;15.30;99.90
53880;DHT22;39791;53.184;5.486;2023-04-01T02:20:51;13.80;99.90
53880;DHT22;39791;53.184;5.486;2023-04-01T02:23:17;17.10;99.90
53880;DHT22;39791;53.184;5.486;2023-04-01T02:25:43;13.00;99.90
53880;DHT22;39791;53.184;5.486;2023-04-01T02:28:12;17.30;99.90
53880;DHT22;39791;53.184;5.486;2023-04-01T02:30:41;16.30;99.90
53880;DHT22;39791;53.184;5.486;2023-04-01T02:33:08;12.10;99.90
53880;DHT22;39791;53.184;5.486;2023-04-01T02:35:35;17.40;99.90
53880;DHT22;39791;53.184;5.486;2023-04-01T02:38:03;12.80;99.90
53880;DHT22;39791;53.184;5.486;2023-04-01T02:40:29;14.90;99.90
53880;DHT22;39791;53.184;5.486;2023-04-01T02:42:54;15.90;99.90
53880;DHT22;39791;53.184;5.486;2023-04-01T02:45:20;17.10;99.90
53880;DHT22;39791;53.184;5.486;2023-04-01T02:47:46;17.70;99.90
53880;DHT22;39791;53.184;5.486;2023-04-01T02:50:11;14.70;99.90
53880;DHT22;39791;53.184;5.486;2023-04-01T02:52:37;16.30;99.90
53880;DHT22;39791;53.184;5.486;2023-04-01T02:55:04;18.70;99.90
53880;DHT22;39791;53.184;5.486;2023-04-01T02:57:30;13.10;99.90
53880;DHT22;39791;53.184;5.486;2023-04-01T02:59:55;12.30;99.90
53880;DHT22;39791;53.184;5.486;2023-04-01T03:02:21;14.30;99.90
53880;DHT22;39791;53.184;5.486;2023-04-01T03:04:47;16.10;99.90
53880;DHT22;39791;53.184;5.486;2023-04-01T03:07:12;17.10;99.90
53880;DHT22;39791;53.184;5.486;2023-04-01T03:09:38;16.80;99.90
53880;DHT22;39791;53.184;5.486;2023-04-01T03:12:05;15.40;99.90
53880;DHT22;39791;53.184;5.486;2023-04-01T03:14:31;14.60;99.90
53880;DHT22;39791;53.184;5.486;2023-04-01T03:16:56;17.20;99.90
53880;DHT22;39791;53.184;5.486;2023-04-01T03:19:22;17.50;99.90
53880;DHT22;39791;53.184;5.486;2023-04-01T03:21:47;12.20;99.90
53880;DHT22;39791;53.184;5.486;2023-04-01T03:24:13;16.70;99.90
53880;DHT22;39791;53.184;5.486;2023-04-01T03:26:39;13.40;99.90
53880;DHT22;39791;53.184;5.486;2023-04-01T03:29:04;16.60;99.90
53880;DHT22;39791;53.184;5.486;2023-04-01T03:31:30;12.20;99.90
53880;DHT22;39791;53.184;5.486;2023-04-01T03:33:56;15.50;99.90
53880;DHT22;39791;53.184;5.486;2023-04-01T03:36:21;13.90;99.90
53880;DHT22;39791;53.184;5.486;2023-04-01T03:38:47;13.30;99.90
53880;DHT22;39791;53.184;5.486;2023-04-01T03:41:14;18.60;99.90
53880;DHT22;39791;53.184;5.486;2023-04-01T03:43:41;16.50;99.90
53880;DHT22;39791;53.184;5.486;2023-04-01T03:46:06;17.40;99.90
53880;DHT22;39791;53.184;5.486;2023-04-01T03:48:32;12.40;99.90
53880;DHT22;39791;53.184;5.486;2023-04-01T03:50:58;13.10;99.90
53880;DHT22;39791;53.184;5.486;2023-04-01T03:53:23;16.30;99.90
53880;DHT22;39791;53.184;5.486;2023-04-01T03:55:49;13.40;99.90
53880;DHT22;39791;53.184;5.486;2023-04-01T03:58:16;12.60;99.90
53880;DHT22;39791;53.184;5.486;2023-04-01T04:00:42;17.40;99.90
53880;DHT22;39791;53.184;5.486;2023-04-01T04:03:08;12.10;99.90
53880;DHT22;39791;53.184;5.486;2023-04-01T04:05:33;16.20;99.90
53880;DHT22;39791;53.184;5.486;2023-04-01T04:07:59;17.50;99.90
53880;DHT22;39791;53.184;5.486;2023-04-01T04:10:25;15.60;99.90
53880;DHT22;39791;53.184;5.486;2023-04-01T04:12:51;13.60;99.90
53880;DHT22;39791;53.184;5.486;2023-04-01T04:15:17;13.10;99.90
53880;DHT22;39791;53.184;5.486;2023-04-01T04:17:44;18.00;99.90
53880;DHT22;39791;53.184;5.486;2023-04-01T04:20:10;16.30;99.90
53880;DHT22;39791;53.184;5.486;2023-04-01T04:22:36;13.90;99.90
53880;DHT22;39791;53.184;5.486;2023-04-01T04:25:01;12.20;99.90
53880;DHT22;39791;53.184;5.486;2023-04-01T04:27:27;16.40;99.90
53880;DHT22;39791;53.184;5.486;2023-04-01T04:29:52;15.20;99.90
53880;DHT22;39791;53.184;5.486;2023-04-01T04:32:18;17.10;99.90
53880;DHT22;39791;53.184;5.486;2023-04-01T04:34:43;18.30;99.90
53880;DHT22;39791;53.184;5.486;2023-04-01T04:37:09;12.30;99.90
53880;DHT22;39791;53.184;5.486;2023-04-01T04:39:35;17.30;99.90
53880;DHT22;39791;53.184;5.486;2023-04-01T04:42:00;17.40;99.90
53880;DHT22;39791;53.184;5.486;2023-04-01T04:44:26;15.90;99.90
53880;DHT22;39791;53.184;5.486;2023-04-01T04:46:52;17.60;99.90
53880;DHT22;39791;53.184;5.486;2023-04-01T04:49:17;13.80;99.90
53880;DHT22;39791;53.184;5.486;2023-04-01T04:51:43;12.00;99.90
53880;DHT22;39791;53.184;5.486;2023-04-01T04:54:09;14.60;99.90
53880;DHT22;39791;53.184;5.486;2023-04-01T04:56:35;15.80;99.90
53880;DHT22;39791;53.184;5.486;2023-04-01T04:59:01;12.10;99.90
53880;DHT22;39791;53.184;5.486;2023-04-01T05:01:26;14.10;99.90
53880;DHT22;39791;53.184;5.486;2023-04-01T05:03:52;13.40;99.90
53880;DHT22;39791;53.184;5.486;2023-04-01T05:06:18;12.10;99.90
53880;DHT22;39791;53.184;5.486;2023-04-01T05:08:44;12.20;99.90
53880;DHT22;39791;53.184;5.486;2023-04-01T05:11:13;12.30;99.90
53880;DHT22;39791;53.184;5.486;2023-04-01T05:13:39;14.80;99.90
53880;DHT22;39791;53.184;5.486;2023-04-01T05:16:09;13.00;99.90
53880;DHT22;39791;53.184;5.486;2023-04-01T05:18:35;13.00;99.90
53880;DHT22;39791;53.184;5.486;2023-04-01T05:21:00;14.20;99.90
53880;DHT22;39791;53.184;5.486;2023-04-01T05:23:26;13.70;99.90
53880;DHT22;39791;53.184;5.486;2023-04-01T05:25:51;15.90;99.90
53880;DHT22;39791;53.184;5.486;2023-04-01T05:28:19;13.20;99.90
53880;DHT22;39791;53.184;5.486;2023-04-01T05:30:45;15.50;99.90
53880;DHT22;39791;53.184;5.486;2023-04-01T05:33:11;15.80;99.90
53880;DHT22;39791;53.184;5.486;2023-04-01T05:35:38;15.20;99.90
53880;DHT22;39791;53.184;5.486;2023-04-01T05:38:04;16.60;99.90
53880;DHT22;39791;53.184;5.486;2023-04-01T05:40:29;17.20;99.90
53880;DHT22;39791;53.184;5.486;2023-04-01T05:42:56;14.40;99.90
53880;DHT22;39791;53.184;5.486;2023-04-01T05:45:22;15.20;99.90
53880;DHT22;39791;53.184;5.486;2023-04-01T05:47:47;13.70;99.90
53880;DHT22;39791;53.184;5.486;2023-04-01T05:50:13;13.70;99.90
53880;DHT22;39791;53.184;5.486;2023-04-01T05:52:39;14.60;99.90
53880;DHT22;39791;53.184;5.486;2023-04-01T05:55:05;13.90;99.90
53880;DHT22;39791;53.184;5.486;2023-04-01T05:57:31;16.00;99.90
53880;DHT22;39791;53.184;5.486;2023-04-01T05:59:57;13.10;99.90
53880;DHT22;39791;53.184;5.486;2023-04-01T06:02:23;14.20;99.90
53880;DHT22;39791;53.184;5.486;2023-04-01T06:04:49;13.20;99.90
53880;DHT22;39791;53.184;5.486;2023-04-01T06:07:16;13.50;99.90
53880;DHT22;39791;53.184;5.486;2023-04-01T06:09:43;15.50;99.90
53880;DHT22;39791;53.184;5.486;2023-04-01T06:20:41;13.90;99.90
53880;DHT22;39791;53.184;5.486;2023-04-01T06:23:29;15.90;99.90
53880;DHT22;39791;53.184;5.486;2023-04-01T06:26:18;14.00;99.90
53880;DHT22;39791;53.184;5.486;2023-04-01T06:32:21;13.10;99.90
53880;DHT22;39791;53.184;5.486;2023-04-01T06:40:43;14.30;99.90
53880;DHT22;39791;53.184;5.486;2023-04-01T06:46:51;16.10;99.90
53880;DHT22;39791;53.184;5.486;2023-04-01T06:49:33;15.50;99.90
53880;DHT22;39791;53.184;5.486;2023-04-01T06:55:05;13.80;99.90
53880;DHT22;39791;53.184;5.486;2023-04-01T06:57:42;14.10;99.90
53880;DHT22;39791;53.184;5.486;2023-04-01T07:00:27;17.60;99.90
53880;DHT22;39791;53.184;5.486;2023-04-01T07:03:00;14.70;99.90
53880;DHT22;39791;53.184;5.486;2023-04-01T07:05:34;14.00;99.90
53880;DHT22;39791;53.184;5.486;2023-04-01T07:08:17;15.00;99.90
53880;DHT22;39791;53.184;5.486;2023-04-01T07:13:44;15.90;99.90
53880;DHT22;39791;53.184;5.486;2023-04-01T07:23:50;14.30;99.90
53880;DHT22;39791;53.184;5.486;2023-04-01T07:26:20;16.00;99.90
53880;DHT22;39791;53.184;5.486;2023-04-01T07:28:46;14.90;99.90
53880;DHT22;39791;53.184;5.486;2023-04-01T07:31:28;16.00;99.90
53880;DHT22;39791;53.184;5.486;2023-04-01T07:48:22;14.30;99.90
53880;DHT22;39791;53.184;5.486;2023-04-01T07:50:59;13.30;99.90
53880;DHT22;39791;53.184;5.486;2023-04-01T07:53:38;14.20;99.90
53880;DHT22;39791;53.184;5.486;2023-04-01T07:56:11;14.60;99.90
53880;DHT22;39791;53.184;5.486;2023-04-01T07:59:17;16.50;99.90
53880;DHT22;39791;53.184;5.486;2023-04-01T08:02:00;16.40;99.90
53880;DHT22;39791;53.184;5.486;2023-04-01T08:07:29;13.20;99.90
53880;DHT22;39791;53.184;5.486;2023-04-01T08:10:36;16.10;99.90
53880;DHT22;39791;53.184;5.486;2023-04-01T08:19:07;14.10;99.90
53880;DHT22;39791;53.184;5.486;2023-04-01T08:21:35;14.00;99.90
53880;DHT22;39791;53.184;5.486;2023-04-01T08:26:53;14.70;99.90
53880;DHT22;39791;53.184;5.486;2023-04-01T08:29:23;16.10;99.90
53880;DHT22;39791;53.184;5.486;2023-04-01T08:32:00;15.80;99.90
53880;DHT22;39791;53.184;5.486;2023-04-01T08:34:34;17.00;99.90
53880;DHT22;39791;53.184;5.486;2023-04-01T08:37:05;13.80;99.90
53880;DHT22;39791;53.184;5.486;2023-04-01T08:39:42;16.30;99.90
53880;DHT22;39791;53.184;5.486;2023-04-01T08:42:23;18.00;99.90
53880;DHT22;39791;53.184;5.486;2023-04-01T09:04:19;14.40;99.90
53880;DHT22;39791;53.184;5.486;2023-04-01T09:12:43;14.60;99.90
53880;DHT22;39791;53.184;5.486;2023-04-01T09:18:09;14.30;99.90
53880;DHT22;39791;53.184;5.486;2023-04-01T09:34:19;17.30;99.90
53880;DHT22;39791;53.184;5.486;2023-04-01T09:37:14;17.20;99.90
53880;DHT22;39791;53.184;5.486;2023-04-01T09:39:50;15.80;99.90
53880;DHT22;39791;53.184;5.486;2023-04-01T09:42:44;14.30;99.90
53880;DHT22;39791;53.184;5.486;2023-04-01T09:53:54;19.10;99.90
53880;DHT22;39791;53.184;5.486;2023-04-01T09:57:02;15.10;99.90
53880;DHT22;39791;53.184;5.486;2023-04-01T10:28:02;16.20;99.90
53880;DHT22;39791;53.184;5.486;2023-04-01T10:59:07;17.30;99.90
53880;DHT22;39791;53.184;5.486;2023-04-01T11:02:07;13.70;99.90
53880;DHT22;39791;53.184;5.486;2023-04-01T11:07:48;16.50;99.90
53880;DHT22;39791;53.184;5.486;2023-04-01T11:18:22;17.10;99.90
53880;DHT22;39791;53.184;5.486;2023-04-01T11:23:38;14.80;99.90
53880;DHT22;39791;53.184;5.486;2023-04-01T11:26:41;14.00;99.90
53880;DHT22;39791;53.184;5.486;2023-04-01T11:29:43;16.80;99.90
53880;DHT22;39791;53.184;5.486;2023-04-01T11:37:49;15.60;99.90
53880;DHT22;39791;53.184;5.486;2023-04-01T11:40:27;14.70;99.90
53880;DHT22;39791;53.184;5.486;2023-04-01T11:45:59;16.00;99.90
53880;DHT22;39791;53.184;5.486;2023-04-01T11:51:03;14.90;99.90
53880;DHT22;39791;53.184;5.486;2023-04-01T12:02:31;15.60;99.90
53880;DHT22;39791;53.184;5.486;2023-04-01T12:05:21;13.20;99.90
53880;DHT22;39791;53.184;5.486;2023-04-01T12:10:39;13.40;99.90
53880;DHT22;39791;53.184;5.486;2023-04-01T12:32:45;15.60;99.90
53880;DHT22;39791;53.184;5.486;2023-04-01T12:35:24;16.40;99.90
53880;DHT22;39791;53.184;5.486;2023-04-01T12:38:27;13.40;99.90
53880;DHT22;39791;53.184;5.486;2023-04-01T12:41:32;13.60;99.90
53880;DHT22;39791;53.184;5.486;2023-04-01T12:58:15;15.20;99.90
53880;DHT22;39791;53.184;5.486;2023-04-01T13:01:01;13.70;99.90
53880;DHT22;39791;53.184;5.486;2023-04-01T13:03:46;15.70;99.90
53880;DHT22;39791;53.184;5.486;2023-04-01T13:14:37;13.20;99.90
53880;DHT22;39791;53.184;5.486;2023-04-01T13:17:14;14.70;99.90
53880;DHT22;39791;53.184;5.486;2023-04-01T13:19:58;14.20;99.90
53880;DHT22;39791;53.184;5.486;2023-04-01T13:22:45;13.40;99.90
53880;DHT22;39791;53.184;5.486;2023-04-01T13:28:26;13.70;99.90
53880;DHT22;39791;53.184;5.486;2023-04-01T13:31:05;15.40;99.90
53880;DHT22;39791;53.184;5.486;2023-04-01T13:39:02;15.40;99.90
53880;DHT22;39791;53.184;5.486;2023-04-01T13:49:34;13.80;99.90
53880;DHT22;39791;53.184;5.486;2023-04-01T13:52:19;13.90;99.90
53880;DHT22;39791;53.184;5.486;2023-04-01T13:58:13;14.80;99.90
53880;DHT22;39791;53.184;5.486;2023-04-01T14:04:09;14.70;99.90
53880;DHT22;39791;53.184;5.486;2023-04-01T14:20:29;13.80;99.90
53880;DHT22;39791;53.184;5.486;2023-04-01T14:23:22;13.20;99.90
53880;DHT22;39791;53.184;5.486;2023-04-01T14:31:44;12.90;99.90
53880;DHT22;39791;53.184;5.486;2023-04-01T14:40:16;12.90;99.90
53880;DHT22;39791;53.184;5.486;2023-04-01T14:42:55;14.30;99.90
53880;DHT22;39791;53.184;5.486;2023-04-01T14:50:55;14.60;99.90
53880;DHT22;39791;53.184;5.486;2023-04-01T14:53:36;12.80;99.90
53880;DHT22;39791;53.184;5.486;2023-04-01T14:56:04;13.10;99.90
53880;DHT22;39791;53.184;5.486;2023-04-01T15:04:50;12.30;99.90
53880;DHT22;39791;53.184;5.486;2023-04-01T15:16:06;12.90;99.90
53880;DHT22;39791;53.184;5.486;2023-04-01T15:37:40;13.50;99.90
53880;DHT22;39791;53.184;5.486;2023-04-01T15:40:44;13.40;99.90
53880;DHT22;39791;53.184;5.486;2023-04-01T16:02:31;12.80;99.90
53880;DHT22;39791;53.184;5.486;2023-04-01T16:08:08;11.80;99.90
53880;DHT22;39791;53.184;5.486;2023-04-01T16:18:55;12.10;99.90
53880;DHT22;39791;53.184;5.486;2023-04-01T16:24:24;12.40;99.90
53880;DHT22;39791;53.184;5.486;2023-04-01T16:32:43;12.50;99.90
53880;DHT22;39791;53.184;5.486;2023-04-01T16:35:44;11.90;99.90
53880;DHT22;39791;53.184;5.486;2023-04-01T16:38:19;11.70;99.90
53880;DHT22;39791;53.184;5.486;2023-04-01T16:43:50;11.30;99.90
53880;DHT22;39791;53.184;5.486;2023-04-01T16:46:38;13.20;99.90
53880;DHT22;39791;53.184;5.486;2023-04-01T16:51:48;14.00;99.90
53880;DHT22;39791;53.184;5.486;2023-04-01T16:54:36;13.30;99.90
53880;DHT22;39791;53.184;5.486;2023-04-01T16:59:35;14.00;99.90
53880;DHT22;39791;53.184;5.486;2023-04-01T17:02:12;11.10;99.90
53880;DHT22;39791;53.184;5.486;2023-04-01T17:05:06;11.10;99.90
53880;DHT22;39791;53.184;5.486;2023-04-01T17:08:08;12.40;99.90
53880;DHT22;39791;53.184;5.486;2023-04-01T17:16:01;12.40;99.90
53880;DHT22;39791;53.184;5.486;2023-04-01T17:21:05;11.60;99.90
53880;DHT22;39791;53.184;5.486;2023-04-01T17:29:20;11.10;99.90
53880;DHT22;39791;53.184;5.486;2023-04-01T17:32:07;11.20;99.90
53880;DHT22;39791;53.184;5.486;2023-04-01T17:45:37;12.80;99.90
53880;DHT22;39791;53.184;5.486;2023-04-01T17:51:15;12.60;99.90
53880;DHT22;39791;53.184;5.486;2023-04-01T17:56:34;11.40;99.90
53880;DHT22;39791;53.184;5.486;2023-04-01T17:59:32;11.10;99.90
53880;DHT22;39791;53.184;5.486;2023-04-01T18:05:14;12.60;99.90
53880;DHT22;39791;53.184;5.486;2023-04-01T18:10:31;12.60;99.90
53880;DHT22;39791;53.184;5.486;2023-04-01T18:18:59;11.50;99.90
53880;DHT22;39791;53.184;5.486;2023-04-01T18:21:41;11.40;99.90
53880;DHT22;39791;53.184;5.486;2023-04-01T18:24:18;12.40;99.90
53880;DHT22;39791;53.184;5.486;2023-04-01T18:29:51;11.90;99.90
53880;DHT22;39791;53.184;5.486;2023-04-01T18:32:31;10.90;99.90
53880;DHT22;39791;53.184;5.486;2023-04-01T18:40:42;12.40;99.90
53880;DHT22;39791;53.184;5.486;2023-04-01T18:43:30;12.20;99.90
53880;DHT22;39791;53.184;5.486;2023-04-01T18:49:21;10.90;99.90
53880;DHT22;39791;53.184;5.486;2023-04-01T18:52:13;12.90;99.90
53880;DHT22;39791;53.184;5.486;2023-04-01T18:57:22;11.50;99.90
53880;DHT22;39791;53.184;5.486;2023-04-01T19:00:03;11.00;99.90
53880;DHT22;39791;53.184;5.486;2023-04-01T19:02:40;11.50;99.90
53880;DHT22;39791;53.184;5.486;2023-04-01T19:05:19;12.40;99.90
53880;DHT22;39791;53.184;5.486;2023-04-01T19:07:50;13.00;99.90
53880;DHT22;39791;53.184;5.486;2023-04-01T19:20:34;12.20;99.90
53880;DHT22;39791;53.184;5.486;2023-04-01T19:26:14;12.20;99.90
53880;DHT22;39791;53.184;5.486;2023-04-01T19:31:35;11.00;99.90
53880;DHT22;39791;53.184;5.486;2023-04-01T19:34:16;12.10;99.90
53880;DHT22;39791;53.184;5.486;2023-04-01T19:36:52;10.60;99.90
53880;DHT22;39791;53.184;5.486;2023-04-01T19:39:31;11.90;99.90
53880;DHT22;39791;53.184;5.486;2023-04-01T19:53:06;10.40;99.90
53880;DHT22;39791;53.184;5.486;2023-04-01T19:55:47;11.90;99.90
53880;DHT22;39791;53.184;5.486;2023-04-01T19:58:24;10.60;99.90
53880;DHT22;39791;53.184;5.486;2023-04-01T20:00:59;10.60;99.90
53880;DHT22;39791;53.184;5.486;2023-04-01T20:06:52;10.60;99.90
53880;DHT22;39791;53.184;5.486;2023-04-01T20:15:30;10.40;99.90
53880;DHT22;39791;53.184;5.486;2023-04-01T20:18:00;11.80;99.90
53880;DHT22;39791;53.184;5.486;2023-04-01T20:20:28;10.40;99.90
53880;DHT22;39791;53.184;5.486;2023-04-01T20:31:42;11.80;99.90
53880;DHT22;39791;53.184;5.486;2023-04-01T20:46:05;11.40;99.90
53880;DHT22;39791;53.184;5.486;2023-04-01T20:51:37;10.20;99.90
53880;DHT22;39791;53.184;5.486;2023-04-01T20:57:11;10.90;99.90
53880;DHT22;39791;53.184;5.486;2023-04-01T20:59:51;10.90;99.90
53880;DHT22;39791;53.184;5.486;2023-04-01T21:11:10;10.30;99.90
53880;DHT22;39791;53.184;5.486;2023-04-01T21:21:49;10.00;99.90
53880;DHT22;39791;53.184;5.486;2023-04-01T21:36:35;9.90;99.90
53880;DHT22;39791;53.184;5.486;2023-04-01T21:42:37;11.00;99.90
53880;DHT22;39791;53.184;5.486;2023-04-01T21:54:12;11.00;99.90
53880;DHT22;39791;53.184;5.486;2023-04-01T22:05:31;9.80;99.90
53880;DHT22;39791;53.184;5.486;2023-04-01T22:13:39;10.80;99.90
53880;DHT22;39791;53.184;5.486;2023-04-01T22:16:27;10.60;99.90
53880;DHT22;39791;53.184;5.486;2023-04-01T22:19:04;10.60;99.90
53880;DHT22;39791;53.184;5.486;2023-04-01T22:21:44;9.90;99.90
53880;DHT22;39791;53.184;5.486;2023-04-01T22:24:26;10.30;99.90
53880;DHT22;39791;53.184;5.486;2023-04-01T22:27:21;12.00;99.90
53880;DHT22;39791;53.184;5.486;2023-04-01T22:30:26;9.70;99.90
53880;DHT22;39791;53.184;5.486;2023-04-01T22:33:07;10.40;99.90
53880;DHT22;39791;53.184;5.486;2023-04-01T22:39:06;9.70;99.90
53880;DHT22;39791;53.184;5.486;2023-04-01T22:49:59;10.30;99.90
53880;DHT22;39791;53.184;5.486;2023-04-01T22:52:35;9.60;99.90
53880;DHT22;39791;53.184;5.486;2023-04-01T22:55:15;10.90;99.90
53880;DHT22;39791;53.184;5.486;2023-04-01T22:58:05;10.60;99.90
53880;DHT22;39791;53.184;5.486;2023-04-01T23:00:37;10.40;99.90
53880;DHT22;39791;53.184;5.486;2023-04-01T23:03:17;10.30;99.90
53880;DHT22;39791;53.184;5.486;2023-04-01T23:05:51;10.30;99.90
53880;DHT22;39791;53.184;5.486;2023-04-01T23:11:08;10.10;99.90
53880;DHT22;39791;53.184;5.486;2023-04-01T23:13:38;9.50;99.90
53880;DHT22;39791;53.184;5.486;2023-04-01T23:16:05;11.20;99.90
53880;DHT22;39791;53.184;5.486;2023-04-01T23:18:45;9.30;99.90
53880;DHT22;39791;53.184;5.486;2023-04-01T23:21:21;9.50;99.90
53880;DHT22;39791;53.184;5.486;2023-04-01T23:27:20;9.30;99.90
53880;DHT22;39791;53.184;5.486;2023-04-01T23:29:25;9.80;99.90
53880;DHT22;39791;53.184;5.486;2023-04-01T23:32:05;10.60;99.90
53880;DHT22;39791;53.184;5.486;2023-04-01T23:34:34;9.10;99.90
53880;DHT22;39791;53.184;5.486;2023-04-01T23:37:08;9.40;99.90
53880;DHT22;39791;53.184;5.486;2023-04-01T23:39:38;10.70;99.90
53880;DHT22;39791;53.184;5.486;2023-04-01T23:42:07;9.30;99.90
53880;DHT22;39791;53.184;5.486;2023-04-01T23:44:37;9.60;99.90
53880;DHT22;39791;53.184;5.486;2023-04-01T23:47:08;8.60;99.90
53880;DHT22;39791;53.184;5.486;2023-04-01T23:49:39;10.40;99.90
53880;DHT22;39791;53.184;5.486;2023-04-01T23:52:22;8.60;99.90
53880;DHT22;39791;53.184;5.486;2023-04-01T23:54:58;9.20;99.90
53880;DHT22;39791;53.184;5.486;2023-04-01T23:57:33;8.80;99.90
